^^
Paulen-Weather Station Historical Data
Daily Summary for August 07, 2022 Units:  English    Metric   Both
Daily Weekly Monthly Yearly Custom
  High: Low: Average:
Temperature: 55.4 °F 55.4 °F 55.4 °F
Dew Point: 50 °F 48.2 °F 49.3 °F
Humidity: 81% 79% 80%
Wind Speed: 9.9mph 3.7mph 5.6mph
Wind Gust: 6.8mph - -
Wind- - WSW
Pressure: 30.2 in 30.2 in -
Precipitation: 0 in    
Historical Graphs
 
 
Tabular Data for August 07, 2022
Time Temperature Dew Point Pressure Wind Wind Speed Wind Gust Humidity Rainfall Rate (Hourly) solar
00:04 55.4 °F 50 °F 30.2 in W 5 mph 4.3 mph 81% 0 in 0 W/m2
00:09 55.4 °F 50 °F 30.2 in E 5.6 mph 5 mph 81% 0 in 0 W/m2
00:14 55.4 °F 50 °F 30.2 in WSW 5.6 mph 5 mph 80% 0 in 0 W/m2
00:19 55.4 °F 50 °F 30.2 in WSW 5 mph 3.1 mph 81% 0 in 0 W/m2
00:24 55.4 °F 50 °F 30.2 in WSW 6.2 mph 4.3 mph 80% 0 in 0 W/m2
00:29 55.4 °F 50 °F 30.2 in WSW 6.2 mph 4.3 mph 80% 0 in 0 W/m2
00:34 55.4 °F 50 °F 30.2 in WSW 4.3 mph 3.7 mph 80% 0 in 0 W/m2
00:39 55.4 °F 50 °F 30.2 in SW 5 mph 3.7 mph 80% 0 in 0 W/m2
00:44 55.4 °F 50 °F 30.2 in WSW 6.2 mph 5.6 mph 80% 0 in 0 W/m2
00:49 55.4 °F 50 °F 30.2 in SW 7.5 mph 5 mph 79% 0 in 0 W/m2
00:54 55.4 °F 50 °F 30.2 in W 6.8 mph 5.6 mph 79% 0 in 0 W/m2
00:59 55.4 °F 50 °F 30.2 in WSW 5 mph 5 mph 79% 0 in 0 W/m2
01:04 55.4 °F 50 °F 30.2 in WSW 9.9 mph 6.8 mph 79% 0 in 0 W/m2
01:09 55.4 °F 50 °F 30.2 in W 7.5 mph 6.2 mph 79% 0 in 0 W/m2
01:14 55.4 °F 50 °F 30.2 in W 5.6 mph 4.3 mph 79% 0 in 0 W/m2
01:19 55.4 °F 50 °F 30.2 in W 6.8 mph 5 mph 79% 0 in 0 W/m2
01:24 55.4 °F 48.2 °F 30.2 in W 5 mph 3.1 mph 79% 0 in 0 W/m2
01:29 55.4 °F 48.2 °F 30.2 in WSW 5.6 mph 5 mph 79% 0 in 0 W/m2
01:34 55.4 °F 48.2 °F 30.2 in WSW 5.6 mph 5 mph 79% 0 in 0 W/m2
01:39 55.4 °F 48.2 °F 30.2 in WSW 5.6 mph 4.3 mph 79% 0 in 0 W/m2
01:44 55.4 °F 48.2 °F 30.2 in W 5 mph 3.1 mph 79% 0 in 0 W/m2
01:49 55.4 °F 48.2 °F 30.2 in W 3.7 mph 3.1 mph 80% 0 in 0 W/m2
01:54 55.4 °F 48.2 °F 30.2 in W 4.3 mph 3.1 mph 80% 0 in 0 W/m2
01:59 55.4 °F 48.2 °F 30.2 in W 3.7 mph 2.5 mph 81% 0 in 0 W/m2
02:04 55.4 °F 48.2 °F 30.2 in WSW 3.7 mph 3.1 mph 81% 0 in 0 W/m2
Compliments of Weather Underground - 2 mb